Time;durP1;ratioP1;P1;durP2;ratioP2;P2;SDS_P1;SDS_P2;PMS_P1;PMS_P2;Temp;Humidity;BMP_temperature;BMP_pressure;BME280_temperature;BME280_humidity;BME280_pressure;Samples;Min_cycle;Max_cycle;Signal;HPM_P1;HPM_P2
2021/11/27 00:01:41;;;;;;;2.80;2.27;;;;;;;6.21;100.00;97151.17;1727802;81;20994;-60
2021/11/27 00:04:09;;;;;;;2.87;2.52;;;;;;;6.23;100.00;97151.56;1727643;81;21504;-61
2021/11/27 00:06:37;;;;;;;3.35;2.90;;;;;;;6.26;100.00;97164.59;1727936;81;21060;-62
2021/11/27 00:09:05;;;;;;;2.50;2.27;;;;;;;6.29;100.00;97142.27;1727136;81;21128;-60
2021/11/27 00:11:33;;;;;;;2.95;2.62;;;;;;;6.31;100.00;97142.23;1727858;81;21424;-62
2021/11/27 00:14:01;;;;;;;3.20;2.70;;;;;;;6.34;100.00;97146.55;1727404;81;20943;-60
2021/11/27 00:16:29;;;;;;;3.17;2.75;;;;;;;6.38;100.00;97144.27;1714516;81;20958;-60
2021/11/27 00:18:57;;;;;;;3.00;2.70;;;;;;;6.39;100.00;97139.00;1726942;81;20923;-60
2021/11/27 00:21:25;;;;;;;2.60;2.40;;;;;;;6.42;100.00;97143.31;1726472;81;21082;-60
2021/11/27 00:23:53;;;;;;;2.92;2.60;;;;;;;6.44;100.00;97138.90;1726891;81;20897;-62
2021/11/27 00:26:21;;;;;;;2.33;2.08;;;;;;;6.45;100.00;97128.84;1728011;81;20867;-60
2021/11/27 00:28:49;;;;;;;2.62;1.80;;;;;;;6.48;100.00;97139.25;1738948;81;21000;-60
2021/11/27 00:31:20;;;;;;;2.10;1.90;;;;;;;6.51;100.00;97132.19;1743800;80;20909;-60
2021/11/27 00:33:49;;;;;;;4.00;2.70;;;;;;;6.56;100.00;97131.62;1744098;81;21095;-60
2021/11/27 00:36:17;;;;;;;1.87;1.77;;;;;;;6.61;100.00;97121.05;1743820;81;20889;-59
2021/11/27 00:38:46;;;;;;;2.10;1.87;;;;;;;6.65;100.00;97124.49;1742726;81;20951;-61
2021/11/27 00:41:17;;;;;;;2.17;1.98;;;;;;;6.67;100.00;97120.94;1743983;81;20905;-61
2021/11/27 00:43:45;;;;;;;2.10;1.90;;;;;;;6.70;100.00;97113.01;1743927;81;20996;-59
2021/11/27 00:46:14;;;;;;;2.25;2.05;;;;;;;6.75;100.00;97121.63;1743930;81;21436;-62
2021/11/27 00:48:43;;;;;;;2.58;2.37;;;;;;;6.80;100.00;97125.45;1743820;81;21000;-60
2021/11/27 00:51:16;;;;;;;2.55;2.30;;;;;;;6.82;100.00;97124.51;1743516;81;21611;-60
2021/11/27 00:53:46;;;;;;;4.25;3.85;;;;;;;6.87;100.00;97126.57;1723016;82;21449;-60
2021/11/27 00:56:15;;;;;;;5.95;5.03;;;;;;;6.91;100.00;97108.56;1743946;80;20944;-60
2021/11/27 00:58:44;;;;;;;6.20;5.60;;;;;;;7.00;100.00;97103.55;1743443;82;21494;-60
2021/11/27 01:01:18;;;;;;;7.83;6.28;;;;;;;7.12;100.00;97106.34;1744071;81;21480;-60
2021/11/27 01:03:48;;;;;;;8.68;7.25;;;;;;;7.21;100.00;97100.42;1742935;80;20937;-61
2021/11/27 01:06:20;;;;;;;10.63;8.03;;;;;;;7.30;100.00;97096.70;1737893;81;21321;-60
2021/11/27 01:08:48;;;;;;;12.63;10.10;;;;;;;7.39;100.00;97106.09;1741231;80;20997;-60
2021/11/27 01:11:29;;;;;;;13.98;11.57;;;;;;;7.46;100.00;97100.63;1743918;82;21092;-61
2021/11/27 01:14:02;;;;;;;12.53;11.15;;;;;;;7.53;100.00;97102.20;1742268;82;20901;-62
2021/11/27 01:16:31;;;;;;;15.35;12.90;;;;;;;7.64;100.00;97110.26;1742740;81;27066;-60
2021/11/27 01:19:01;;;;;;;18.25;13.78;;;;;;;7.70;100.00;97103.53;1742392;81;21457;-59
2021/11/27 01:21:32;;;;;;;18.57;15.28;;;;;;;7.79;100.00;97105.90;1714636;83;20917;-60
2021/11/27 01:24:03;;;;;;;20.92;16.65;;;;;;;7.85;100.00;97106.59;1715222;82;21106;-61
2021/11/27 01:26:33;;;;;;;22.62;16.70;;;;;;;7.91;100.00;97101.62;1742687;81;21452;-60
2021/11/27 01:29:01;;;;;;;19.23;15.93;;;;;;;7.95;100.00;97088.81;1704746;81;20929;-60
2021/11/27 01:31:29;;;;;;;21.77;16.82;;;;;;;8.02;100.00;97090.36;1729953;81;21014;-61
2021/11/27 01:33:57;;;;;;;19.07;16.17;;;;;;;8.05;100.00;97088.99;1698737;81;20998;-62
2021/11/27 01:36:25;;;;;;;21.35;16.32;;;;;;;8.07;100.00;97092.88;1694338;83;21081;-60
2021/11/27 01:38:53;;;;;;;20.85;16.73;;;;;;;8.08;100.00;97099.41;1722509;81;20874;-59
2021/11/27 01:41:21;;;;;;;22.40;17.17;;;;;;;8.12;100.00;97097.09;1728430;81;20978;-59
2021/11/27 01:43:50;;;;;;;22.40;17.17;;;;;;;8.15;100.00;97097.00;1728188;81;21513;-61
2021/11/27 01:46:18;;;;;;;22.50;16.85;;;;;;;8.17;100.00;97086.00;1728446;81;20957;-60
2021/11/27 01:48:47;;;;;;;21.00;16.40;;;;;;;8.19;100.00;97092.07;1697361;81;21618;-60
2021/11/27 01:51:20;;;;;;;20.60;16.77;;;;;;;8.21;100.00;97080.20;1728368;81;21458;-59
2021/11/27 01:53:56;;;;;;;23.42;16.50;;;;;;;8.23;100.00;97084.10;1697407;83;21042;-60
2021/11/27 01:56:28;;;;;;;20.70;17.77;;;;;;;8.25;100.00;97075.72;1728188;81;20906;-64
2021/11/27 01:58:56;;;;;;;22.30;16.37;;;;;;;8.25;100.00;97071.33;1728964;81;20978;-60
2021/11/27 02:01:28;;;;;;;22.13;17.15;;;;;;;8.22;100.00;97083.23;1729499;81;21078;-60
2021/11/27 02:03:57;;;;;;;19.98;16.37;;;;;;;8.23;100.00;97082.78;1729904;81;26978;-61
2021/11/27 02:06:28;;;;;;;21.95;17.12;;;;;;;8.24;100.00;97077.48;1729292;81;21406;-61
2021/11/27 02:08:57;;;;;;;23.60;17.90;;;;;;;8.24;100.00;97076.17;1729597;81;20947;-61
2021/11/27 02:11:29;;;;;;;24.27;17.87;;;;;;;8.24;100.00;97080.57;1699141;83;20950;-60
2021/11/27 02:13:58;;;;;;;;;;;;;;;8.24;100.00;97088.00;1731402;81;21112;-59
2021/11/27 02:16:26;;;;;;;22.32;16.62;;;;;;;8.25;100.00;97096.28;1697671;83;20475;-60
2021/11/27 02:18:56;;;;;;;19.77;16.45;;;;;;;8.24;100.00;97094.56;1728167;81;20975;-60
2021/11/27 02:21:25;;;;;;;22.60;15.75;;;;;;;8.23;100.00;97088.04;1728470;81;20951;-61
2021/11/27 02:23:54;;;;;;;20.52;16.77;;;;;;;8.20;100.00;97086.37;1728318;81;21505;-59
2021/11/27 02:26:29;;;;;;;21.45;17.50;;;;;;;8.19;100.00;97088.58;1727754;81;21397;-60
2021/11/27 02:29:06;;;;;;;23.52;16.40;;;;;;;8.17;100.00;97086.00;1721275;81;20878;-60
2021/11/27 02:31:36;;;;;;;20.45;16.25;;;;;;;8.18;100.00;97089.03;1719949;81;21424;-59
2021/11/27 02:34:06;;;;;;;23.42;17.55;;;;;;;8.15;100.00;97088.27;1719952;81;21458;-59
2021/11/27 02:36:37;;;;;;;22.00;17.30;;;;;;;8.12;100.00;97082.66;1695954;81;21419;-59
2021/11/27 02:39:07;;;;;;;26.25;17.82;;;;;;;8.11;100.00;97075.68;1718211;81;21274;-60
2021/11/27 02:41:36;;;;;;;23.15;16.95;;;;;;;8.06;100.00;97064.45;1718389;81;21449;-59
2021/11/27 02:44:06;;;;;;;20.40;16.55;;;;;;;8.09;100.00;97074.00;1718161;81;20990;-61
2021/11/27 02:46:38;;;;;;;24.92;17.00;;;;;;;8.05;100.00;97065.36;1697118;82;21478;-61
2021/11/27 02:49:06;;;;;;;22.45;16.32;;;;;;;8.01;100.00;97060.20;1636237;84;21472;-60
2021/11/27 02:51:39;;;;;;;23.38;18.40;;;;;;;7.99;100.00;97067.27;1686488;85;22028;-59
2021/11/27 02:54:09;;;;;;;;;;;;;;;7.98;100.00;97070.80;1686891;83;21469;-61
2021/11/27 02:56:40;;;;;;;22.00;17.15;;;;;;;7.98;100.00;97079.53;1658736;84;20437;-60
2021/11/27 02:59:17;;;;;;;22.75;16.67;;;;;;;7.97;100.00;97091.39;1658008;84;21464;-61
2021/11/27 03:01:53;;;;;;;21.30;16.62;;;;;;;7.96;100.00;97090.98;1658585;84;21490;-60
2021/11/27 03:04:28;;;;;;;28.40;17.92;;;;;;;7.94;100.00;97091.03;1658521;84;21449;-61
2021/11/27 03:06:57;;;;;;;21.33;17.02;;;;;;;7.94;100.00;97090.17;1658793;84;21526;-61
2021/11/27 03:09:27;;;;;;;26.00;16.82;;;;;;;7.92;100.00;97090.67;1657762;84;21507;-60
2021/11/27 03:11:57;;;;;;;23.12;17.75;;;;;;;7.94;100.00;97098.05;1657461;84;21601;-60
2021/11/27 03:14:30;;;;;;;21.62;17.20;;;;;;;7.96;100.00;97084.42;1677469;85;21210;-60
2021/11/27 03:17:03;;;;;;;23.25;16.85;;;;;;;7.95;100.00;97086.19;1688550;82;21239;-60
2021/11/27 03:19:42;;;;;;;19.25;15.45;;;;;;;7.93;100.00;97086.69;1703155;82;20856;-61
2021/11/27 03:22:16;;;;;;;19.25;14.73;;;;;;;7.92;100.00;97082.34;1716618;82;21378;-60
2021/11/27 03:24:52;;;;;;;21.77;16.50;;;;;;;7.92;100.00;97082.79;1687945;83;21410;-61
2021/11/27 03:27:21;;;;;;;22.35;17.27;;;;;;;7.88;100.00;97087.27;1690748;82;21433;-60
2021/11/27 03:29:58;;;;;;;21.65;16.75;;;;;;;7.88;100.00;97087.27;1686612;83;21063;-59
2021/11/27 03:35:07;;;;;;;19.92;15.32;;;;;;;7.85;100.00;97091.30;1704600;82;20970;-59
2021/11/27 03:37:35;;;;;;;19.57;15.05;;;;;;;7.84;100.00;97093.06;1714636;82;21414;-60
2021/11/27 03:40:21;;;;;;;21.33;16.77;;;;;;;7.84;100.00;97085.64;1687519;83;21007;-60
2021/11/27 03:42:50;;;;;;;22.70;17.52;;;;;;;7.82;100.00;97078.25;1718421;82;21096;-61
2021/11/27 03:45:21;;;;;;;19.50;15.90;;;;;;;7.81;100.00;97072.15;1715069;82;21414;-60
2021/11/27 03:48:12;;;;;;;18.00;15.08;;;;;;;7.82;100.00;97076.95;1721443;80;21406;-60
2021/11/27 03:50:51;;;;;;;18.62;15.03;;;;;;;7.81;100.00;97081.78;1717502;82;21466;-59
2021/11/27 03:53:24;;;;;;;22.02;16.02;;;;;;;7.79;100.00;97077.89;1715940;82;21450;-60
2021/11/27 03:55:53;;;;;;;20.82;15.98;;;;;;;7.76;100.00;97072.73;1720201;80;21254;-60
2021/11/27 03:58:25;;;;;;;22.05;17.10;;;;;;;7.75;100.00;97080.20;1709443;82;21465;-60
2021/11/27 04:00:56;;;;;;;20.37;15.35;;;;;;;7.77;100.00;97082.77;1698562;82;21469;-60
2021/11/27 04:03:27;;;;;;;18.90;14.68;;;;;;;7.77;100.00;97084.09;1712712;82;21458;-60
2021/11/27 04:05:59;;;;;;;19.67;15.30;;;;;;;7.76;100.00;97090.24;1717771;82;20951;-60
2021/11/27 04:08:31;;;;;;;21.85;17.30;;;;;;;7.74;100.00;97100.78;1689177;82;21425;-60
2021/11/27 04:13:40;;;;;;;19.10;14.65;;;;;;;7.73;100.00;97085.08;1712375;82;20898;-60
2021/11/27 04:16:18;;;;;;;18.25;15.20;;;;;;;7.71;100.00;97089.51;1721630;81;21002;-60
2021/11/27 04:18:53;;;;;;;20.57;16.02;;;;;;;7.67;100.00;97084.80;1721802;81;21002;-60
2021/11/27 04:21:21;;;;;;;20.68;16.48;;;;;;;7.66;100.00;97091.40;1722154;81;21101;-61
2021/11/27 04:23:51;;;;;;;19.85;15.80;;;;;;;7.62;100.00;97095.87;1722706;80;21438;-60
2021/11/27 04:26:27;;;;;;;21.00;15.10;;;;;;;7.60;100.00;97099.44;1720095;81;21473;-60
2021/11/27 04:28:56;;;;;;;19.02;14.73;;;;;;;7.57;100.00;97088.13;1729569;80;20918;-59
2021/11/27 04:31:28;;;;;;;16.60;14.78;;;;;;;7.55;100.00;97085.95;1739350;80;21417;-60
2021/11/27 04:34:00;;;;;;;17.73;15.80;;;;;;;7.53;100.00;97087.77;1728554;81;21496;-60
2021/11/27 04:36:35;;;;;;;19.12;14.98;;;;;;;7.50;100.00;97094.41;1731178;81;21407;-61
2021/11/27 04:39:06;;;;;;;15.78;14.07;;;;;;;7.48;100.00;97103.22;1734132;80;21101;-60
2021/11/27 04:41:38;;;;;;;17.35;14.80;;;;;;;7.47;100.00;97115.92;1755227;80;21476;-60
2021/11/27 04:44:11;;;;;;;20.08;14.50;;;;;;;7.48;100.00;97106.70;1744697;80;20947;-61
2021/11/27 04:46:49;;;;;;;21.30;15.72;;;;;;;7.46;100.00;97103.26;1722331;80;21106;-60
2021/11/27 04:49:17;;;;;;;20.02;16.23;;;;;;;7.45;100.00;97102.84;1712700;82;20934;-59
2021/11/27 04:51:49;;;;;;;17.20;14.68;;;;;;;7.43;100.00;97107.27;1733661;80;21473;-60
2021/11/27 04:54:18;;;;;;;13.43;10.70;;;;;;;7.42;100.00;97108.62;1704706;82;20954;-59
2021/11/27 04:56:47;;;;;;;17.23;14.47;;;;;;;7.39;100.00;97113.50;1691856;82;20863;-60
2021/11/27 04:59:16;;;;;;;17.27;14.18;;;;;;;7.38;100.00;97115.72;1714544;82;22015;-62
2021/11/27 05:01:46;;;;;;;18.30;14.60;;;;;;;7.34;100.00;97123.25;1713471;82;20903;-60
2021/11/27 05:04:21;;;;;;;20.17;15.73;;;;;;;7.32;100.00;97118.50;1714542;82;21378;-61
2021/11/27 05:06:46;;;;;;;18.92;14.53;;;;;;;7.28;100.00;97124.72;1710998;82;20930;-61
2021/11/27 05:09:21;;;;;;;15.35;12.88;;;;;;;7.25;100.00;97126.97;1713749;82;21476;-60
2021/11/27 05:11:50;;;;;;;15.40;12.33;;;;;;;7.23;100.00;97124.84;1716339;80;21401;-61
2021/11/27 05:14:26;;;;;;;17.15;13.45;;;;;;;7.19;100.00;97128.44;1715619;82;20840;-61
2021/11/27 05:16:56;;;;;;;18.67;14.58;;;;;;;7.18;100.00;97138.52;1710871;81;20938;-60
2021/11/27 05:19:29;;;;;;;;;;;;;;;7.18;100.00;97133.72;1715495;82;20919;-60
2021/11/27 05:22:10;;;;;;;16.23;13.00;;;;;;;7.15;100.00;97135.97;1639213;84;20406;-60
2021/11/27 05:24:49;;;;;;;15.88;12.82;;;;;;;7.14;100.00;97134.70;1693146;82;21072;-60
2021/11/27 05:27:34;;;;;;;16.82;12.98;;;;;;;7.12;100.00;97140.42;1671259;84;20890;-60
2021/11/27 05:30:24;;;;;;;16.70;12.40;;;;;;;7.11;100.00;97145.26;1686122;83;21429;-59
2021/11/27 05:35:35;;;;;;;18.12;13.03;;;;;;;7.03;100.00;97138.86;1727678;81;21402;-60
2021/11/27 05:38:09;;;;;;;14.43;12.28;;;;;;;7.04;100.00;97144.96;1724842;81;21433;-61
2021/11/27 05:40:47;;;;;;;16.73;11.83;;;;;;;7.03;100.00;97144.55;1725172;81;21497;-61
2021/11/27 05:43:16;;;;;;;13.05;11.60;;;;;;;7.01;100.00;97153.77;1725905;81;21465;-62
2021/11/27 05:45:45;;;;;;;16.87;12.20;;;;;;;7.02;100.00;97159.87;1691951;83;21489;-61
2021/11/27 05:48:19;;;;;;;14.63;12.30;;;;;;;7.03;100.00;97158.97;1671080;83;20925;-62
2021/11/27 05:51:05;;;;;;;16.00;12.23;;;;;;;7.03;100.00;97161.59;1727733;81;21067;-61
2021/11/27 05:53:40;;;;;;;13.10;11.70;;;;;;;7.02;100.00;97152.86;1727977;81;20890;-61
2021/11/27 05:56:08;;;;;;;11.95;9.38;;;;;;;7.02;100.00;97155.48;1727807;81;21409;-63
2021/11/27 05:58:38;;;;;;;14.13;12.47;;;;;;;7.00;100.00;97149.42;1728076;81;20941;-61
2021/11/27 06:01:10;;;;;;;15.80;13.03;;;;;;;7.00;100.00;97152.48;1727680;81;20957;-60
2021/11/27 06:03:42;;;;;;;17.17;12.88;;;;;;;6.99;100.00;97155.56;1709197;81;21377;-61
2021/11/27 06:06:19;;;;;;;17.07;12.58;;;;;;;6.96;100.00;97162.19;1725255;81;21430;-61
2021/11/27 06:08:48;;;;;;;14.60;11.97;;;;;;;6.97;100.00;97159.98;1726827;81;20925;-61
2021/11/27 06:11:17;;;;;;;15.28;12.23;;;;;;;6.97;100.00;97164.36;1727183;81;20993;-61
2021/11/27 06:13:50;;;;;;;15.93;11.53;;;;;;;6.97;100.00;97163.05;1727935;81;20997;-59
2021/11/27 06:16:27;;;;;;;15.23;12.93;;;;;;;6.95;100.00;97172.26;1727798;81;21421;-60
2021/11/27 06:18:58;;;;;;;15.30;12.98;;;;;;;6.97;100.00;97174.84;1728079;81;20969;-61
2021/11/27 06:21:34;;;;;;;13.85;11.48;;;;;;;6.97;100.00;97177.02;1727583;81;20854;-61
2021/11/27 06:24:09;;;;;;;14.38;11.43;;;;;;;6.96;100.00;97176.60;1727927;81;21449;-61
2021/11/27 06:26:38;;;;;;;14.70;11.95;;;;;;;6.98;100.00;97181.81;1727802;81;20946;-59
2021/11/27 06:29:08;;;;;;;16.70;13.03;;;;;;;6.98;100.00;97185.73;1727691;81;21812;-61
2021/11/27 06:31:36;;;;;;;14.53;11.65;;;;;;;6.97;100.00;97186.19;1743042;81;21479;-61
2021/11/27 06:34:05;;;;;;;14.40;11.73;;;;;;;6.98;100.00;97189.22;1744147;81;20889;-61
2021/11/27 06:36:33;;;;;;;18.42;11.70;;;;;;;6.97;100.00;97199.30;1743841;81;21484;-61
2021/11/27 06:39:01;;;;;;;11.78;10.43;;;;;;;6.99;100.00;97196.64;1742924;81;20949;-60
2021/11/27 06:41:29;;;;;;;14.63;12.25;;;;;;;7.01;100.00;97197.02;1742401;82;21725;-60
2021/11/27 06:44:09;;;;;;;14.40;11.57;;;;;;;7.04;100.00;97204.81;1710453;83;21486;-60
2021/11/27 06:46:39;;;;;;;13.75;11.93;;;;;;;7.06;100.00;97199.08;1742908;81;21451;-59
2021/11/27 06:49:07;;;;;;;14.60;11.43;;;;;;;7.10;100.00;97213.02;1744220;81;20958;-60
2021/11/27 06:51:35;;;;;;;16.55;10.98;;;;;;;7.12;100.00;97195.48;1742995;81;20937;-60
2021/11/27 06:54:02;;;;;;;13.85;11.10;;;;;;;7.17;100.00;97201.48;1742710;82;21072;-61
2021/11/27 06:56:31;;;;;;;13.68;11.20;;;;;;;7.20;100.00;97193.54;1742289;82;20933;-61
2021/11/27 06:58:59;;;;;;;13.78;11.05;;;;;;;7.25;100.00;97198.22;1743305;81;21404;-61
2021/11/27 07:01:32;;;;;;;16.75;11.80;;;;;;;7.30;100.00;97190.25;1743152;80;21413;-61
2021/11/27 07:04:21;;;;;;;15.00;12.03;;;;;;;7.33;100.00;97194.11;1741117;80;21539;-61
2021/11/27 07:07:08;;;;;;;14.18;11.08;;;;;;;7.37;100.00;97204.48;1730804;80;21409;-60
2021/11/27 07:09:47;;;;;;;12.23;10.50;;;;;;;7.42;100.00;97198.67;1736188;82;20946;-63
2021/11/27 07:12:17;;;;;;;12.75;10.65;;;;;;;7.47;100.00;97203.80;1739402;80;20901;-61
2021/11/27 07:14:46;;;;;;;15.08;11.50;;;;;;;7.50;100.00;97204.59;1743900;80;20893;-61
2021/11/27 07:17:14;;;;;;;13.48;11.50;;;;;;;7.53;100.00;97204.96;1743691;81;20905;-60
2021/11/27 07:19:43;;;;;;;12.28;10.98;;;;;;;7.55;100.00;97212.34;1743139;81;21091;-60
2021/11/27 07:22:11;;;;;;;13.88;10.82;;;;;;;7.57;100.00;97214.06;1743895;81;20858;-61
2021/11/27 07:24:39;;;;;;;12.60;9.88;;;;;;;7.58;100.00;97213.61;1744241;81;20883;-61
2021/11/27 07:27:08;;;;;;;10.08;8.80;;;;;;;7.61;100.00;97213.98;1742804;80;20930;-60
2021/11/27 07:29:38;;;;;;;11.22;9.60;;;;;;;7.63;100.00;97220.05;1744202;81;20905;-62
2021/11/27 07:32:07;;;;;;;11.93;9.70;;;;;;;7.67;100.00;97221.25;1743892;82;21401;-62
2021/11/27 07:34:34;;;;;;;11.93;9.65;;;;;;;7.71;100.00;97227.28;1741576;81;21467;-60
2021/11/27 07:37:02;;;;;;;15.35;9.85;;;;;;;7.72;100.00;97222.45;1710166;82;20910;-61
2021/11/27 07:39:30;;;;;;;10.58;9.48;;;;;;;7.78;100.00;97219.21;1720572;82;21021;-61
2021/11/27 07:41:58;;;;;;;10.58;9.23;;;;;;;7.84;100.00;97218.19;1738923;81;20917;-62
2021/11/27 07:44:27;;;;;;;13.60;9.58;;;;;;;7.88;100.00;97211.95;1732862;81;21978;-59
2021/11/27 07:46:57;;;;;;;11.73;10.13;;;;;;;7.93;100.00;97215.77;1715288;82;20885;-61
2021/11/27 07:49:42;;;;;;;11.55;9.43;;;;;;;7.94;100.00;97222.30;1739929;81;20922;-60
2021/11/27 07:52:28;;;;;;;12.35;9.53;;;;;;;7.98;100.00;97225.70;1735046;81;20913;-60
2021/11/27 07:54:57;;;;;;;11.75;9.40;;;;;;;8.06;100.00;97230.33;1741215;82;20946;-62
2021/11/27 07:57:25;;;;;;;11.00;9.60;;;;;;;8.14;100.00;97233.16;1742284;82;21103;-62
2021/11/27 07:59:52;;;;;;;10.90;9.23;;;;;;;8.23;100.00;97234.67;1742995;81;20949;-60
2021/11/27 08:02:21;;;;;;;10.90;9.70;;;;;;;8.32;100.00;97249.31;1743729;81;20925;-59
2021/11/27 08:04:48;;;;;;;11.80;8.83;;;;;;;8.39;100.00;97247.82;1744073;81;20921;-61
2021/11/27 08:07:17;;;;;;;10.10;8.60;;;;;;;8.45;100.00;97246.34;1743834;81;20965;-62
2021/11/27 08:09:45;;;;;;;11.08;8.70;;;;;;;8.48;100.00;97248.87;1744180;81;21758;-60
2021/11/27 08:12:14;;;;;;;9.83;8.83;;;;;;;8.51;100.00;97249.25;1743886;81;20870;-62
2021/11/27 08:14:43;;;;;;;10.38;9.18;;;;;;;8.52;100.00;97243.12;1743781;81;20877;-63
2021/11/27 08:17:11;;;;;;;11.80;10.15;;;;;;;8.54;100.00;97241.30;1742298;81;21433;-61
2021/11/27 08:19:40;;;;;;;9.48;8.25;;;;;;;8.57;100.00;97243.84;1742692;82;21461;-63
2021/11/27 08:22:08;;;;;;;9.68;8.45;;;;;;;8.59;100.00;97247.29;1742323;82;21097;-61
2021/11/27 08:24:37;;;;;;;10.05;8.40;;;;;;;8.64;100.00;97249.33;1742530;82;20933;-60
2021/11/27 08:27:05;;;;;;;9.80;8.45;;;;;;;8.71;100.00;97250.02;1734993;82;21005;-61
2021/11/27 08:29:32;;;;;;;10.50;8.68;;;;;;;8.76;100.00;97247.66;1739737;80;21394;-61
2021/11/27 08:32:02;;;;;;;10.13;8.58;;;;;;;8.82;100.00;97243.54;1716823;81;20951;-61
2021/11/27 08:34:31;;;;;;;11.15;8.73;;;;;;;8.88;100.00;97249.06;1732370;81;21144;-61
2021/11/27 08:36:59;;;;;;;9.08;7.67;;;;;;;8.93;100.00;97247.62;1722919;82;20994;-62
2021/11/27 08:39:27;;;;;;;10.78;9.00;;;;;;;9.00;100.00;97254.45;1719912;81;21059;-60
2021/11/27 08:41:54;;;;;;;26.23;7.67;;;;;;;9.06;100.00;97253.80;1722441;81;21451;-66
2021/11/27 08:44:22;;;;;;;12.30;8.15;;;;;;;9.12;100.00;97250.98;1722597;81;20864;-61
2021/11/27 08:46:52;;;;;;;15.20;8.73;;;;;;;9.17;100.00;97240.33;1722758;81;21475;-63
2021/11/27 08:49:24;;;;;;;9.65;8.45;;;;;;;9.23;100.00;97245.39;1719811;82;20893;-60
2021/11/27 08:51:54;;;;;;;9.23;7.12;;;;;;;9.27;100.00;97245.70;1722736;81;21516;-61
2021/11/27 08:54:22;;;;;;;8.03;7.20;;;;;;;9.32;100.00;97237.21;1725944;81;21450;-62
2021/11/27 08:56:50;;;;;;;9.50;8.18;;;;;;;9.39;100.00;97241.37;1724913;81;20915;-62
2021/11/27 08:59:18;;;;;;;9.08;7.12;;;;;;;9.48;100.00;97244.65;1725789;81;21080;-62
2021/11/27 09:01:46;;;;;;;7.80;7.00;;;;;;;9.51;100.00;97230.94;1724968;81;21470;-63
2021/11/27 09:04:13;;;;;;;8.68;7.15;;;;;;;9.56;100.00;97228.16;1723246;81;20907;-65
2021/11/27 09:06:42;;;;;;;9.35;6.85;;;;;;;9.61;100.00;97232.81;1722057;81;21408;-63
2021/11/27 09:09:11;;;;;;;9.50;6.75;;;;;;;9.65;100.00;97223.90;1720777;82;20943;-62
2021/11/27 09:11:39;;;;;;;6.97;6.30;;;;;;;9.68;100.00;97228.61;1722951;81;21447;-62
2021/11/27 09:14:07;;;;;;;7.83;7.03;;;;;;;9.74;100.00;97223.59;1723329;81;20895;-62
2021/11/27 09:16:36;;;;;;;9.00;6.95;;;;;;;9.76;100.00;97229.67;1724209;81;20954;-62
2021/11/27 09:19:06;;;;;;;9.58;6.78;;;;;;;9.79;100.00;97227.79;1723588;82;20967;-62
2021/11/27 09:21:34;;;;;;;10.35;7.60;;;;;;;9.83;100.00;97223.73;1722825;81;20924;-62
2021/11/27 09:24:02;;;;;;;11.95;7.47;;;;;;;9.89;100.00;97220.44;1720646;81;21177;-62
2021/11/27 09:26:31;;;;;;;9.70;6.33;;;;;;;9.96;100.00;97226.39;1720237;82;20960;-63
2021/11/27 09:28:59;;;;;;;8.18;6.72;;;;;;;10.00;100.00;97227.55;1721195;82;20959;-63
2021/11/27 09:31:27;;;;;;;7.97;6.17;;;;;;;10.03;100.00;97224.80;1720918;81;20845;-59
2021/11/27 09:33:54;;;;;;;8.18;6.62;;;;;;;10.06;100.00;97227.79;1716038;83;20953;-62
2021/11/27 09:36:24;;;;;;;8.23;6.55;;;;;;;10.07;100.00;97222.92;1716223;83;21412;-62
2021/11/27 09:38:52;;;;;;;7.95;6.80;;;;;;;10.10;100.00;97221.05;1715925;83;20849;-64
2021/11/27 09:41:27;;;;;;;8.95;7.78;;;;;;;10.15;100.00;97221.34;1716277;83;20928;-63
2021/11/27 09:44:05;;;;;;;8.40;6.85;;;;;;;10.20;100.00;97222.03;1715953;83;20892;-63
2021/11/27 09:46:36;;;;;;;7.28;6.45;;;;;;;10.24;100.00;97231.12;1716094;82;21478;-64
2021/11/27 09:49:07;;;;;;;7.10;6.17;;;;;;;10.32;100.00;97235.67;1706379;83;21122;-63
2021/11/27 09:51:37;;;;;;;7.75;6.22;;;;;;;10.42;100.00;97230.09;1715322;82;20984;-62
2021/11/27 09:54:07;;;;;;;7.70;6.80;;;;;;;10.50;100.00;97233.31;1712550;82;20933;-63
2021/11/27 09:56:36;;;;;;;9.30;6.70;;;;;;;10.57;100.00;97228.22;1709892;83;20996;-63
2021/11/27 09:59:03;;;;;;;7.75;6.75;;;;;;;10.62;100.00;97224.50;1734934;82;20988;-65
2021/11/27 10:01:36;;;;;;;10.05;6.72;;;;;;;10.66;100.00;97227.42;1736303;80;21081;-71
2021/11/27 10:04:06;;;;;;;10.38;6.60;;;;;;;10.69;100.00;97216.77;1737148;80;20953;-62
2021/11/27 10:06:41;;;;;;;6.15;5.53;;;;;;;10.71;100.00;97220.20;1712467;82;20913;-62
2021/11/27 10:09:16;;;;;;;6.37;5.75;;;;;;;10.75;100.00;97220.08;1689262;83;20949;-61
2021/11/27 10:11:47;;;;;;;8.75;6.40;;;;;;;10.77;100.00;97216.47;1691793;83;21485;-63
2021/11/27 10:14:16;;;;;;;6.67;5.85;;;;;;;10.82;100.00;97213.66;1667295;85;20926;-63
2021/11/27 10:17:02;;;;;;;7.37;6.00;;;;;;;10.83;100.00;97214.92;1741162;80;21481;-63
2021/11/27 10:19:47;;;;;;;7.97;5.97;;;;;;;10.86;100.00;97204.71;1737315;81;20909;-63
2021/11/27 10:22:20;;;;;;;8.93;6.42;;;;;;;10.97;100.00;97202.55;1738246;80;20897;-63
2021/11/27 10:24:48;;;;;;;6.85;5.75;;;;;;;11.14;100.00;97210.67;1737742;80;20909;-62
2021/11/27 10:27:27;;;;;;;7.33;6.05;;;;;;;11.33;100.00;97209.48;1740005;82;21091;-64
2021/11/27 10:30:09;;;;;;;9.25;5.55;;;;;;;11.50;100.00;97207.51;1737413;81;21452;-67
2021/11/27 10:32:41;;;;;;;7.60;5.15;;;;;;;11.60;100.00;97203.56;1729706;81;20960;-62
2021/11/27 10:35:17;;;;;;;8.65;4.97;;;;;;;11.66;100.00;97205.95;1724581;81;20999;-62
2021/11/27 10:37:53;;;;;;;5.55;4.87;;;;;;;11.66;100.00;97200.67;1727994;81;21444;-63
2021/11/27 10:40:27;;;;;;;9.28;5.10;;;;;;;11.65;100.00;97208.20;1727364;81;21061;-62
2021/11/27 10:43:01;;;;;;;5.92;5.10;;;;;;;11.61;100.00;97203.50;1725706;81;20897;-61
2021/11/27 10:45:35;;;;;;;6.87;5.22;;;;;;;11.57;100.00;97201.91;1725895;81;21062;-63
2021/11/27 10:48:16;;;;;;;5.83;5.22;;;;;;;11.53;100.00;97196.82;1728761;81;20988;-63
2021/11/27 10:50:55;;;;;;;6.70;5.55;;;;;;;11.48;100.00;97198.33;1727378;81;21054;-62
2021/11/27 10:53:31;;;;;;;18.10;5.80;;;;;;;11.44;100.00;97199.84;1728226;81;21101;-62
2021/11/27 10:56:10;;;;;;;5.58;4.42;;;;;;;11.41;100.00;97200.82;1727515;81;20904;-62
2021/11/27 10:59:05;;;;;;;5.30;4.60;;;;;;;11.39;100.00;97207.09;1733104;81;20943;-61
2021/11/27 11:01:56;;;;;;;5.85;4.35;;;;;;;11.37;100.00;97217.70;1730265;81;21426;-61
2021/11/27 11:04:25;;;;;;;6.28;4.70;;;;;;;11.33;100.00;97219.58;1724604;81;20939;-62
2021/11/27 11:07:19;;;;;;;8.75;4.95;;;;;;;11.33;100.00;97219.58;1725813;81;21809;-63
2021/11/27 11:10:08;;;;;;;6.40;5.53;;;;;;;11.33;100.00;97230.13;1728286;81;21391;-61
2021/11/27 11:12:48;;;;;;;5.72;5.12;;;;;;;11.33;100.00;97231.91;1728628;81;20843;-62
2021/11/27 11:15:31;;;;;;;12.88;5.00;;;;;;;11.35;100.00;97234.92;1728359;81;21413;-63
2021/11/27 11:18:21;;;;;;;6.45;5.30;;;;;;;11.38;100.00;97240.55;1729951;81;20916;-62
2021/11/27 11:20:58;;;;;;;9.23;5.45;;;;;;;11.41;100.00;97237.78;1719434;81;21099;-64
2021/11/27 11:23:37;;;;;;;7.70;5.70;;;;;;;11.43;100.00;97241.22;1728283;81;20905;-62
2021/11/27 11:26:15;;;;;;;5.60;5.10;;;;;;;11.48;100.00;97243.22;1726569;81;20941;-62
2021/11/27 11:28:57;;;;;;;6.70;5.58;;;;;;;11.49;100.00;97242.30;1726107;81;20960;-63
2021/11/27 11:31:35;;;;;;;8.73;7.03;;;;;;;11.49;100.00;97244.94;1728774;81;20869;-62
2021/11/27 11:34:02;;;;;;;6.90;5.50;;;;;;;11.52;100.00;97246.59;1736885;81;21119;-62
2021/11/27 11:36:33;;;;;;;6.30;5.28;;;;;;;11.56;100.00;97248.19;1740034;81;20945;-62
2021/11/27 11:39:02;;;;;;;6.70;4.90;;;;;;;11.59;100.00;97247.60;1720309;82;20906;-63
2021/11/27 11:41:30;;;;;;;5.47;4.80;;;;;;;11.65;100.00;97246.49;1738738;81;20909;-62
2021/11/27 11:43:58;;;;;;;5.05;4.55;;;;;;;11.70;100.00;97242.34;1739438;82;20937;-64
2021/11/27 11:46:29;;;;;;;7.15;4.90;;;;;;;11.67;100.00;97230.12;1738598;82;21093;-63
2021/11/27 11:48:57;;;;;;;7.95;4.67;;;;;;;11.63;100.00;97231.17;1735946;81;21488;-63
2021/11/27 11:51:48;;;;;;;5.33;4.60;;;;;;;11.59;100.00;97228.25;1739086;81;20870;-62
2021/11/27 11:54:16;;;;;;;6.83;4.72;;;;;;;11.57;100.00;97238.02;1737771;82;21043;-62